sensor_id;sensor_type;location;lat;lon;timestamp;P1;durP1;ratioP1;P2;durP2;ratioP2
72547;SDS011;60570;50.848;6.776;2023-03-14T00:00:11;4.07;;;0.93;;
72547;SDS011;60570;50.848;6.776;2023-03-14T00:01:15;8.70;;;1.00;;
72547;SDS011;60570;50.848;6.776;2023-03-14T00:02:17;4.13;;;0.82;;
72547;SDS011;60570;50.848;6.776;2023-03-14T00:03:18;2.92;;;0.73;;
72547;SDS011;60570;50.848;6.776;2023-03-14T00:04:18;2.50;;;0.60;;
72547;SDS011;60570;50.848;6.776;2023-03-14T00:05:18;3.25;;;0.77;;
72547;SDS011;60570;50.848;6.776;2023-03-14T00:06:19;5.47;;;0.70;;
72547;SDS011;60570;50.848;6.776;2023-03-14T00:07:20;2.88;;;0.63;;
72547;SDS011;60570;50.848;6.776;2023-03-14T00:08:21;2.15;;;0.50;;
72547;SDS011;60570;50.848;6.776;2023-03-14T00:09:21;5.35;;;0.90;;
72547;SDS011;60570;50.848;6.776;2023-03-14T00:10:22;3.63;;;0.60;;
72547;SDS011;60570;50.848;6.776;2023-03-14T00:11:22;2.63;;;0.82;;
72547;SDS011;60570;50.848;6.776;2023-03-14T00:12:23;2.47;;;0.50;;
72547;SDS011;60570;50.848;6.776;2023-03-14T00:13:23;3.45;;;0.65;;
72547;SDS011;60570;50.848;6.776;2023-03-14T00:14:24;5.72;;;0.70;;
72547;SDS011;60570;50.848;6.776;2023-03-14T00:15:24;4.50;;;1.08;;
72547;SDS011;60570;50.848;6.776;2023-03-14T00:16:25;4.53;;;0.90;;
72547;SDS011;60570;50.848;6.776;2023-03-14T00:17:26;5.15;;;1.02;;
72547;SDS011;60570;50.848;6.776;2023-03-14T00:18:27;5.72;;;1.13;;
72547;SDS011;60570;50.848;6.776;2023-03-14T00:19:27;4.75;;;0.77;;
72547;SDS011;60570;50.848;6.776;2023-03-14T00:20:28;4.00;;;0.88;;
72547;SDS011;60570;50.848;6.776;2023-03-14T00:21:28;4.90;;;0.63;;
72547;SDS011;60570;50.848;6.776;2023-03-14T00:22:29;5.72;;;1.13;;
72547;SDS011;60570;50.848;6.776;2023-03-14T00:23:31;5.38;;;0.90;;
72547;SDS011;60570;50.848;6.776;2023-03-14T00:24:33;4.60;;;0.50;;
72547;SDS011;60570;50.848;6.776;2023-03-14T00:25:34;4.35;;;0.60;;
72547;SDS011;60570;50.848;6.776;2023-03-14T00:26:35;7.88;;;1.13;;
72547;SDS011;60570;50.848;6.776;2023-03-14T00:27:35;3.53;;;0.60;;
72547;SDS011;60570;50.848;6.776;2023-03-14T00:28:37;4.50;;;0.75;;
72547;SDS011;60570;50.848;6.776;2023-03-14T00:29:38;5.68;;;1.10;;
72547;SDS011;60570;50.848;6.776;2023-03-14T00:30:38;4.90;;;0.88;;
72547;SDS011;60570;50.848;6.776;2023-03-14T00:31:39;4.32;;;0.73;;
72547;SDS011;60570;50.848;6.776;2023-03-14T00:32:39;5.38;;;1.13;;
72547;SDS011;60570;50.848;6.776;2023-03-14T00:33:40;3.40;;;0.70;;
72547;SDS011;60570;50.848;6.776;2023-03-14T00:34:41;6.20;;;0.98;;
72547;SDS011;60570;50.848;6.776;2023-03-14T00:35:41;5.15;;;1.15;;
72547;SDS011;60570;50.848;6.776;2023-03-14T00:36:42;3.53;;;0.60;;
72547;SDS011;60570;50.848;6.776;2023-03-14T00:37:42;4.07;;;1.00;;
72547;SDS011;60570;50.848;6.776;2023-03-14T00:38:45;5.38;;;0.68;;
72547;SDS011;60570;50.848;6.776;2023-03-14T00:39:47;5.15;;;0.77;;
72547;SDS011;60570;50.848;6.776;2023-03-14T00:40:47;3.15;;;0.80;;
72547;SDS011;60570;50.848;6.776;2023-03-14T00:41:48;3.03;;;0.73;;
72547;SDS011;60570;50.848;6.776;2023-03-14T00:42:48;3.40;;;0.77;;
72547;SDS011;60570;50.848;6.776;2023-03-14T00:43:49;5.13;;;0.88;;
72547;SDS011;60570;50.848;6.776;2023-03-14T00:44:50;5.32;;;0.93;;
72547;SDS011;60570;50.848;6.776;2023-03-14T00:45:51;6.30;;;1.05;;
72547;SDS011;60570;50.848;6.776;2023-03-14T00:46:52;5.40;;;0.80;;
72547;SDS011;60570;50.848;6.776;2023-03-14T00:47:53;4.78;;;1.17;;
72547;SDS011;60570;50.848;6.776;2023-03-14T00:48:54;6.40;;;1.08;;
72547;SDS011;60570;50.848;6.776;2023-03-14T00:49:54;7.35;;;1.20;;
72547;SDS011;60570;50.848;6.776;2023-03-14T00:50:54;4.40;;;0.90;;
72547;SDS011;60570;50.848;6.776;2023-03-14T00:51:55;6.80;;;1.10;;
72547;SDS011;60570;50.848;6.776;2023-03-14T00:52:56;4.13;;;0.70;;
72547;SDS011;60570;50.848;6.776;2023-03-14T00:53:56;4.57;;;0.80;;
72547;SDS011;60570;50.848;6.776;2023-03-14T00:54:56;6.40;;;1.20;;
72547;SDS011;60570;50.848;6.776;2023-03-14T00:55:57;3.80;;;0.80;;
72547;SDS011;60570;50.848;6.776;2023-03-14T00:57:03;4.88;;;0.95;;
72547;SDS011;60570;50.848;6.776;2023-03-14T00:58:03;3.05;;;0.60;;
72547;SDS011;60570;50.848;6.776;2023-03-14T00:59:04;3.45;;;0.60;;
72547;SDS011;60570;50.848;6.776;2023-03-14T01:00:04;4.25;;;1.05;;
72547;SDS011;60570;50.848;6.776;2023-03-14T01:01:10;4.30;;;0.85;;
72547;SDS011;60570;50.848;6.776;2023-03-14T01:02:14;3.50;;;0.63;;
72547;SDS011;60570;50.848;6.776;2023-03-14T01:03:14;6.20;;;1.00;;
72547;SDS011;60570;50.848;6.776;2023-03-14T01:04:15;6.57;;;0.68;;
72547;SDS011;60570;50.848;6.776;2023-03-14T01:05:15;5.25;;;0.90;;
72547;SDS011;60570;50.848;6.776;2023-03-14T01:06:17;3.78;;;0.75;;
72547;SDS011;60570;50.848;6.776;2023-03-14T01:07:19;3.53;;;0.60;;
72547;SDS011;60570;50.848;6.776;2023-03-14T01:08:20;6.60;;;1.13;;
72547;SDS011;60570;50.848;6.776;2023-03-14T01:09:20;5.72;;;0.70;;
72547;SDS011;60570;50.848;6.776;2023-03-14T01:10:21;4.07;;;0.70;;
72547;SDS011;60570;50.848;6.776;2023-03-14T01:11:25;2.97;;;0.60;;
72547;SDS011;60570;50.848;6.776;2023-03-14T01:12:28;2.88;;;0.63;;
72547;SDS011;60570;50.848;6.776;2023-03-14T01:13:29;5.50;;;0.60;;
72547;SDS011;60570;50.848;6.776;2023-03-14T01:14:29;4.90;;;0.68;;
72547;SDS011;60570;50.848;6.776;2023-03-14T01:15:31;2.60;;;0.70;;
72547;SDS011;60570;50.848;6.776;2023-03-14T01:16:33;4.68;;;0.70;;
72547;SDS011;60570;50.848;6.776;2023-03-14T01:17:35;3.30;;;0.55;;
72547;SDS011;60570;50.848;6.776;2023-03-14T01:18:38;4.40;;;1.00;;
72547;SDS011;60570;50.848;6.776;2023-03-14T01:19:40;4.57;;;0.88;;
72547;SDS011;60570;50.848;6.776;2023-03-14T01:20:41;4.38;;;0.70;;
72547;SDS011;60570;50.848;6.776;2023-03-14T01:21:41;4.30;;;0.50;;
72547;SDS011;60570;50.848;6.776;2023-03-14T01:22:42;6.47;;;0.95;;
72547;SDS011;60570;50.848;6.776;2023-03-14T01:23:43;2.90;;;0.60;;
72547;SDS011;60570;50.848;6.776;2023-03-14T01:24:44;7.28;;;0.75;;
72547;SDS011;60570;50.848;6.776;2023-03-14T01:25:44;3.28;;;0.60;;
72547;SDS011;60570;50.848;6.776;2023-03-14T01:26:45;2.97;;;0.52;;
72547;SDS011;60570;50.848;6.776;2023-03-14T01:27:45;4.65;;;0.65;;
72547;SDS011;60570;50.848;6.776;2023-03-14T01:28:46;4.63;;;0.80;;
72547;SDS011;60570;50.848;6.776;2023-03-14T01:29:47;5.40;;;0.80;;
72547;SDS011;60570;50.848;6.776;2023-03-14T01:30:48;6.97;;;0.80;;
72547;SDS011;60570;50.848;6.776;2023-03-14T01:31:48;4.80;;;0.70;;
72547;SDS011;60570;50.848;6.776;2023-03-14T01:32:48;3.90;;;0.82;;
72547;SDS011;60570;50.848;6.776;2023-03-14T01:33:49;3.67;;;0.80;;
72547;SDS011;60570;50.848;6.776;2023-03-14T01:34:50;3.40;;;0.80;;
72547;SDS011;60570;50.848;6.776;2023-03-14T01:35:50;5.55;;;0.80;;
72547;SDS011;60570;50.848;6.776;2023-03-14T01:36:50;2.97;;;0.63;;
72547;SDS011;60570;50.848;6.776;2023-03-14T01:37:51;3.63;;;0.73;;
72547;SDS011;60570;50.848;6.776;2023-03-14T01:38:51;4.53;;;0.52;;
72547;SDS011;60570;50.848;6.776;2023-03-14T01:39:52;8.38;;;1.00;;
72547;SDS011;60570;50.848;6.776;2023-03-14T01:40:52;6.15;;;1.10;;
72547;SDS011;60570;50.848;6.776;2023-03-14T01:41:52;4.25;;;0.60;;
72547;SDS011;60570;50.848;6.776;2023-03-14T01:42:57;4.75;;;0.68;;
72547;SDS011;60570;50.848;6.776;2023-03-14T01:43:58;3.70;;;0.60;;
72547;SDS011;60570;50.848;6.776;2023-03-14T01:45:00;4.65;;;0.60;;
72547;SDS011;60570;50.848;6.776;2023-03-14T01:47:05;2.97;;;0.65;;
72547;SDS011;60570;50.848;6.776;2023-03-14T01:48:06;4.05;;;0.70;;
72547;SDS011;60570;50.848;6.776;2023-03-14T01:50:25;3.22;;;0.75;;
72547;SDS011;60570;50.848;6.776;2023-03-14T01:51:30;4.35;;;0.60;;
72547;SDS011;60570;50.848;6.776;2023-03-14T01:52:33;1.85;;;0.50;;
72547;SDS011;60570;50.848;6.776;2023-03-14T01:53:37;7.47;;;0.80;;
72547;SDS011;60570;50.848;6.776;2023-03-14T01:54:40;3.67;;;0.60;;
72547;SDS011;60570;50.848;6.776;2023-03-14T01:55:43;3.28;;;0.40;;
72547;SDS011;60570;50.848;6.776;2023-03-14T01:56:43;2.95;;;0.40;;
72547;SDS011;60570;50.848;6.776;2023-03-14T01:57:54;3.50;;;0.63;;
72547;SDS011;60570;50.848;6.776;2023-03-14T02:00:06;2.47;;;0.52;;
72547;SDS011;60570;50.848;6.776;2023-03-14T02:01:11;3.28;;;0.50;;
72547;SDS011;60570;50.848;6.776;2023-03-14T02:02:14;2.88;;;0.50;;
72547;SDS011;60570;50.848;6.776;2023-03-14T02:03:16;4.97;;;0.73;;
72547;SDS011;60570;50.848;6.776;2023-03-14T02:04:18;3.35;;;0.80;;
72547;SDS011;60570;50.848;6.776;2023-03-14T02:05:24;1.90;;;0.35;;
72547;SDS011;60570;50.848;6.776;2023-03-14T02:06:29;2.38;;;0.50;;
72547;SDS011;60570;50.848;6.776;2023-03-14T02:08:36;3.58;;;0.40;;
72547;SDS011;60570;50.848;6.776;2023-03-14T02:09:39;1.85;;;0.38;;
72547;SDS011;60570;50.848;6.776;2023-03-14T02:10:43;2.72;;;0.50;;
72547;SDS011;60570;50.848;6.776;2023-03-14T02:11:45;2.22;;;0.40;;
72547;SDS011;60570;50.848;6.776;2023-03-14T02:12:47;3.72;;;0.35;;
72547;SDS011;60570;50.848;6.776;2023-03-14T02:13:49;3.38;;;0.50;;
72547;SDS011;60570;50.848;6.776;2023-03-14T02:14:49;2.75;;;0.30;;
72547;SDS011;60570;50.848;6.776;2023-03-14T02:15:50;4.75;;;0.38;;
72547;SDS011;60570;50.848;6.776;2023-03-14T02:16:50;1.90;;;0.43;;
72547;SDS011;60570;50.848;6.776;2023-03-14T02:17:51;2.03;;;0.32;;
72547;SDS011;60570;50.848;6.776;2023-03-14T02:18:52;1.95;;;0.45;;
72547;SDS011;60570;50.848;6.776;2023-03-14T02:21:14;2.42;;;0.40;;
72547;SDS011;60570;50.848;6.776;2023-03-14T02:22:23;2.83;;;0.30;;
72547;SDS011;60570;50.848;6.776;2023-03-14T02:23:27;1.23;;;0.30;;
72547;SDS011;60570;50.848;6.776;2023-03-14T02:24:40;2.40;;;0.40;;
72547;SDS011;60570;50.848;6.776;2023-03-14T02:28:05;2.83;;;0.25;;
72547;SDS011;60570;50.848;6.776;2023-03-14T02:29:06;2.60;;;0.40;;
72547;SDS011;60570;50.848;6.776;2023-03-14T02:30:08;3.47;;;0.32;;
72547;SDS011;60570;50.848;6.776;2023-03-14T02:31:11;2.20;;;0.20;;
72547;SDS011;60570;50.848;6.776;2023-03-14T02:32:12;2.58;;;0.30;;
72547;SDS011;60570;50.848;6.776;2023-03-14T02:33:16;4.93;;;0.68;;
72547;SDS011;60570;50.848;6.776;2023-03-14T02:34:19;2.40;;;0.43;;
72547;SDS011;60570;50.848;6.776;2023-03-14T02:35:21;3.75;;;0.55;;
72547;SDS011;60570;50.848;6.776;2023-03-14T02:36:23;2.60;;;0.30;;
72547;SDS011;60570;50.848;6.776;2023-03-14T02:37:25;2.08;;;0.50;;
72547;SDS011;60570;50.848;6.776;2023-03-14T02:39:47;2.95;;;0.47;;
72547;SDS011;60570;50.848;6.776;2023-03-14T02:40:49;1.13;;;0.20;;
72547;SDS011;60570;50.848;6.776;2023-03-14T02:41:50;0.95;;;0.17;;
72547;SDS011;60570;50.848;6.776;2023-03-14T02:42:50;1.77;;;0.38;;
72547;SDS011;60570;50.848;6.776;2023-03-14T02:43:51;2.92;;;0.50;;
72547;SDS011;60570;50.848;6.776;2023-03-14T02:44:55;2.58;;;0.30;;
72547;SDS011;60570;50.848;6.776;2023-03-14T02:46:20;1.70;;;0.40;;
72547;SDS011;60570;50.848;6.776;2023-03-14T02:47:22;3.17;;;0.50;;
72547;SDS011;60570;50.848;6.776;2023-03-14T02:48:30;1.30;;;0.20;;
72547;SDS011;60570;50.848;6.776;2023-03-14T02:49:33;3.90;;;0.50;;
72547;SDS011;60570;50.848;6.776;2023-03-14T02:50:34;1.23;;;0.20;;
72547;SDS011;60570;50.848;6.776;2023-03-14T02:51:35;3.92;;;0.47;;
72547;SDS011;60570;50.848;6.776;2023-03-14T02:52:35;3.00;;;0.50;;
72547;SDS011;60570;50.848;6.776;2023-03-14T02:53:36;1.60;;;0.30;;
72547;SDS011;60570;50.848;6.776;2023-03-14T02:54:38;1.23;;;0.20;;
72547;SDS011;60570;50.848;6.776;2023-03-14T02:55:38;1.17;;;0.25;;
72547;SDS011;60570;50.848;6.776;2023-03-14T02:56:39;2.88;;;0.38;;
72547;SDS011;60570;50.848;6.776;2023-03-14T02:57:39;2.45;;;0.35;;
72547;SDS011;60570;50.848;6.776;2023-03-14T02:58:39;2.35;;;0.30;;
72547;SDS011;60570;50.848;6.776;2023-03-14T02:59:40;2.47;;;0.50;;
72547;SDS011;60570;50.848;6.776;2023-03-14T03:00:41;2.50;;;0.57;;
72547;SDS011;60570;50.848;6.776;2023-03-14T03:01:41;3.90;;;0.73;;
72547;SDS011;60570;50.848;6.776;2023-03-14T03:02:42;2.50;;;0.30;;
72547;SDS011;60570;50.848;6.776;2023-03-14T03:03:42;2.05;;;0.50;;
72547;SDS011;60570;50.848;6.776;2023-03-14T03:04:43;3.80;;;0.40;;
72547;SDS011;60570;50.848;6.776;2023-03-14T03:05:47;4.40;;;0.40;;
72547;SDS011;60570;50.848;6.776;2023-03-14T03:06:51;2.67;;;0.30;;
72547;SDS011;60570;50.848;6.776;2023-03-14T03:07:51;1.42;;;0.40;;
72547;SDS011;60570;50.848;6.776;2023-03-14T03:08:52;1.75;;;0.20;;
72547;SDS011;60570;50.848;6.776;2023-03-14T03:09:52;1.75;;;0.47;;
72547;SDS011;60570;50.848;6.776;2023-03-14T03:10:53;3.83;;;0.50;;
72547;SDS011;60570;50.848;6.776;2023-03-14T03:11:54;2.40;;;0.30;;
72547;SDS011;60570;50.848;6.776;2023-03-14T03:12:54;4.85;;;0.38;;
72547;SDS011;60570;50.848;6.776;2023-03-14T03:13:55;1.83;;;0.40;;
72547;SDS011;60570;50.848;6.776;2023-03-14T03:14:55;3.00;;;0.40;;
72547;SDS011;60570;50.848;6.776;2023-03-14T03:15:56;3.15;;;0.50;;
72547;SDS011;60570;50.848;6.776;2023-03-14T03:16:56;3.10;;;0.70;;
72547;SDS011;60570;50.848;6.776;2023-03-14T03:17:56;2.47;;;0.50;;
72547;SDS011;60570;50.848;6.776;2023-03-14T03:18:57;5.30;;;0.52;;
72547;SDS011;60570;50.848;6.776;2023-03-14T03:19:57;2.85;;;0.40;;
72547;SDS011;60570;50.848;6.776;2023-03-14T03:21:01;4.03;;;0.75;;
72547;SDS011;60570;50.848;6.776;2023-03-14T03:22:03;4.70;;;0.68;;
72547;SDS011;60570;50.848;6.776;2023-03-14T03:23:04;4.30;;;0.80;;
72547;SDS011;60570;50.848;6.776;2023-03-14T03:24:05;4.07;;;0.77;;
72547;SDS011;60570;50.848;6.776;2023-03-14T03:25:07;2.88;;;0.45;;
72547;SDS011;60570;50.848;6.776;2023-03-14T03:26:09;7.20;;;0.70;;
72547;SDS011;60570;50.848;6.776;2023-03-14T03:27:10;3.25;;;0.50;;
72547;SDS011;60570;50.848;6.776;2023-03-14T03:28:11;3.33;;;0.60;;
72547;SDS011;60570;50.848;6.776;2023-03-14T03:29:11;5.40;;;1.05;;
72547;SDS011;60570;50.848;6.776;2023-03-14T03:30:12;3.92;;;0.63;;
72547;SDS011;60570;50.848;6.776;2023-03-14T03:31:13;3.95;;;0.90;;
72547;SDS011;60570;50.848;6.776;2023-03-14T03:32:13;4.72;;;1.00;;
72547;SDS011;60570;50.848;6.776;2023-03-14T03:33:14;5.55;;;1.20;;
72547;SDS011;60570;50.848;6.776;2023-03-14T03:34:14;3.22;;;0.50;;
72547;SDS011;60570;50.848;6.776;2023-03-14T03:35:15;2.55;;;0.43;;
72547;SDS011;60570;50.848;6.776;2023-03-14T03:36:17;6.97;;;0.95;;
72547;SDS011;60570;50.848;6.776;2023-03-14T03:37:20;6.55;;;0.75;;
72547;SDS011;60570;50.848;6.776;2023-03-14T03:38:21;5.85;;;0.55;;
72547;SDS011;60570;50.848;6.776;2023-03-14T03:39:21;5.00;;;0.70;;
72547;SDS011;60570;50.848;6.776;2023-03-14T03:40:22;4.85;;;0.60;;
72547;SDS011;60570;50.848;6.776;2023-03-14T03:41:22;6.18;;;0.80;;
72547;SDS011;60570;50.848;6.776;2023-03-14T03:42:23;5.00;;;0.52;;
72547;SDS011;60570;50.848;6.776;2023-03-14T03:43:23;4.43;;;0.63;;
72547;SDS011;60570;50.848;6.776;2023-03-14T03:44:24;3.83;;;0.75;;
72547;SDS011;60570;50.848;6.776;2023-03-14T03:45:24;4.80;;;1.48;;
72547;SDS011;60570;50.848;6.776;2023-03-14T03:46:25;4.82;;;0.85;;
72547;SDS011;60570;50.848;6.776;2023-03-14T03:47:25;7.80;;;0.77;;
72547;SDS011;60570;50.848;6.776;2023-03-14T03:48:26;6.45;;;1.08;;
72547;SDS011;60570;50.848;6.776;2023-03-14T03:49:31;5.93;;;0.77;;
72547;SDS011;60570;50.848;6.776;2023-03-14T03:50:31;3.83;;;0.80;;
72547;SDS011;60570;50.848;6.776;2023-03-14T03:51:32;6.43;;;0.80;;
72547;SDS011;60570;50.848;6.776;2023-03-14T03:52:32;3.05;;;0.50;;
72547;SDS011;60570;50.848;6.776;2023-03-14T03:53:33;5.13;;;0.85;;
72547;SDS011;60570;50.848;6.776;2023-03-14T03:54:33;3.85;;;0.70;;
72547;SDS011;60570;50.848;6.776;2023-03-14T03:55:33;5.30;;;0.63;;
72547;SDS011;60570;50.848;6.776;2023-03-14T03:56:34;6.50;;;0.82;;
72547;SDS011;60570;50.848;6.776;2023-03-14T03:57:34;4.30;;;0.80;;
72547;SDS011;60570;50.848;6.776;2023-03-14T03:58:35;4.70;;;0.70;;
72547;SDS011;60570;50.848;6.776;2023-03-14T03:59:35;4.50;;;0.85;;
72547;SDS011;60570;50.848;6.776;2023-03-14T04:00:35;5.50;;;0.63;;
72547;SDS011;60570;50.848;6.776;2023-03-14T04:01:36;5.30;;;0.90;;
72547;SDS011;60570;50.848;6.776;2023-03-14T04:02:36;3.80;;;0.52;;
72547;SDS011;60570;50.848;6.776;2023-03-14T04:03:37;4.88;;;0.88;;
72547;SDS011;60570;50.848;6.776;2023-03-14T04:04:40;5.85;;;1.00;;
72547;SDS011;60570;50.848;6.776;2023-03-14T04:05:40;4.05;;;1.17;;
72547;SDS011;60570;50.848;6.776;2023-03-14T04:06:41;3.83;;;0.80;;
72547;SDS011;60570;50.848;6.776;2023-03-14T04:07:42;5.25;;;0.70;;
72547;SDS011;60570;50.848;6.776;2023-03-14T04:08:42;5.43;;;0.82;;
72547;SDS011;60570;50.848;6.776;2023-03-14T04:09:43;4.00;;;0.68;;
72547;SDS011;60570;50.848;6.776;2023-03-14T04:10:44;3.83;;;0.82;;
72547;SDS011;60570;50.848;6.776;2023-03-14T04:11:44;3.88;;;0.70;;
72547;SDS011;60570;50.848;6.776;2023-03-14T04:12:44;4.32;;;0.57;;
72547;SDS011;60570;50.848;6.776;2023-03-14T04:13:45;4.88;;;0.63;;
72547;SDS011;60570;50.848;6.776;2023-03-14T04:14:45;5.80;;;0.70;;
72547;SDS011;60570;50.848;6.776;2023-03-14T04:15:46;3.65;;;0.80;;
72547;SDS011;60570;50.848;6.776;2023-03-14T04:16:46;4.57;;;0.70;;
72547;SDS011;60570;50.848;6.776;2023-03-14T04:17:47;3.53;;;0.65;;
72547;SDS011;60570;50.848;6.776;2023-03-14T04:18:47;4.30;;;0.50;;
72547;SDS011;60570;50.848;6.776;2023-03-14T04:19:48;3.55;;;0.85;;
72547;SDS011;60570;50.848;6.776;2023-03-14T04:20:51;5.82;;;0.55;;
72547;SDS011;60570;50.848;6.776;2023-03-14T04:21:52;4.85;;;0.60;;
72547;SDS011;60570;50.848;6.776;2023-03-14T04:22:53;4.05;;;0.50;;
72547;SDS011;60570;50.848;6.776;2023-03-14T04:23:53;5.70;;;0.90;;
72547;SDS011;60570;50.848;6.776;2023-03-14T04:24:54;3.85;;;0.70;;
72547;SDS011;60570;50.848;6.776;2023-03-14T04:25:54;5.65;;;0.73;;
72547;SDS011;60570;50.848;6.776;2023-03-14T04:26:55;4.72;;;0.65;;
72547;SDS011;60570;50.848;6.776;2023-03-14T04:27:55;8.48;;;0.70;;
72547;SDS011;60570;50.848;6.776;2023-03-14T04:28:55;3.55;;;0.73;;
72547;SDS011;60570;50.848;6.776;2023-03-14T04:29:56;8.45;;;0.90;;
72547;SDS011;60570;50.848;6.776;2023-03-14T04:30:56;7.30;;;0.65;;
72547;SDS011;60570;50.848;6.776;2023-03-14T04:31:57;4.07;;;0.47;;
72547;SDS011;60570;50.848;6.776;2023-03-14T04:32:57;7.50;;;0.70;;
72547;SDS011;60570;50.848;6.776;2023-03-14T04:33:58;7.45;;;0.85;;
72547;SDS011;60570;50.848;6.776;2023-03-14T04:34:58;4.20;;;0.60;;
72547;SDS011;60570;50.848;6.776;2023-03-14T04:35:58;7.30;;;0.57;;
72547;SDS011;60570;50.848;6.776;2023-03-14T04:36:59;5.20;;;0.70;;
72547;SDS011;60570;50.848;6.776;2023-03-14T04:37:59;3.95;;;0.35;;
72547;SDS011;60570;50.848;6.776;2023-03-14T04:39:00;8.75;;;0.73;;
72547;SDS011;60570;50.848;6.776;2023-03-14T04:40:01;3.58;;;0.60;;
72547;SDS011;60570;50.848;6.776;2023-03-14T04:41:01;6.00;;;0.60;;
72547;SDS011;60570;50.848;6.776;2023-03-14T04:42:02;3.83;;;0.70;;
72547;SDS011;60570;50.848;6.776;2023-03-14T04:43:03;3.28;;;0.43;;
72547;SDS011;60570;50.848;6.776;2023-03-14T04:44:03;4.15;;;0.68;;
72547;SDS011;60570;50.848;6.776;2023-03-14T04:45:04;3.03;;;0.52;;
72547;SDS011;60570;50.848;6.776;2023-03-14T04:46:05;5.65;;;0.75;;
72547;SDS011;60570;50.848;6.776;2023-03-14T04:47:05;3.30;;;0.65;;
72547;SDS011;60570;50.848;6.776;2023-03-14T04:48:06;5.13;;;0.40;;
72547;SDS011;60570;50.848;6.776;2023-03-14T04:49:06;3.58;;;0.57;;
72547;SDS011;60570;50.848;6.776;2023-03-14T04:50:07;5.80;;;1.05;;
72547;SDS011;60570;50.848;6.776;2023-03-14T04:51:08;2.85;;;0.40;;
72547;SDS011;60570;50.848;6.776;2023-03-14T04:52:09;6.43;;;0.80;;
72547;SDS011;60570;50.848;6.776;2023-03-14T04:53:09;3.92;;;0.55;;
72547;SDS011;60570;50.848;6.776;2023-03-14T04:54:10;1.75;;;0.38;;
72547;SDS011;60570;50.848;6.776;2023-03-14T04:55:11;4.15;;;0.63;;
72547;SDS011;60570;50.848;6.776;2023-03-14T04:56:11;3.30;;;0.43;;
72547;SDS011;60570;50.848;6.776;2023-03-14T04:57:13;4.25;;;0.50;;
72547;SDS011;60570;50.848;6.776;2023-03-14T04:58:13;3.83;;;0.50;;
72547;SDS011;60570;50.848;6.776;2023-03-14T04:59:13;2.55;;;0.50;;
72547;SDS011;60570;50.848;6.776;2023-03-14T05:00:14;3.67;;;0.30;;
72547;SDS011;60570;50.848;6.776;2023-03-14T05:01:14;2.83;;;0.30;;
72547;SDS011;60570;50.848;6.776;2023-03-14T05:02:15;2.53;;;0.40;;
72547;SDS011;60570;50.848;6.776;2023-03-14T05:03:16;3.20;;;0.50;;
72547;SDS011;60570;50.848;6.776;2023-03-14T05:04:17;4.07;;;0.50;;
72547;SDS011;60570;50.848;6.776;2023-03-14T05:05:18;2.67;;;0.43;;
72547;SDS011;60570;50.848;6.776;2023-03-14T05:06:18;3.63;;;0.63;;
72547;SDS011;60570;50.848;6.776;2023-03-14T05:07:19;2.35;;;0.40;;
72547;SDS011;60570;50.848;6.776;2023-03-14T05:08:19;3.08;;;0.60;;
72547;SDS011;60570;50.848;6.776;2023-03-14T05:09:20;2.15;;;0.57;;
72547;SDS011;60570;50.848;6.776;2023-03-14T05:10:20;1.50;;;0.28;;
72547;SDS011;60570;50.848;6.776;2023-03-14T05:11:21;3.60;;;0.40;;
72547;SDS011;60570;50.848;6.776;2023-03-14T05:12:21;1.75;;;0.30;;
72547;SDS011;60570;50.848;6.776;2023-03-14T05:13:22;3.00;;;0.50;;
72547;SDS011;60570;50.848;6.776;2023-03-14T05:14:22;1.88;;;0.38;;
72547;SDS011;60570;50.848;6.776;2023-03-14T05:15:23;1.90;;;0.30;;
72547;SDS011;60570;50.848;6.776;2023-03-14T05:16:24;1.90;;;0.30;;
72547;SDS011;60570;50.848;6.776;2023-03-14T05:17:24;1.50;;;0.20;;
72547;SDS011;60570;50.848;6.776;2023-03-14T05:18:24;6.57;;;0.75;;
72547;SDS011;60570;50.848;6.776;2023-03-14T05:19:25;7.82;;;0.50;;
72547;SDS011;60570;50.848;6.776;2023-03-14T05:20:25;7.70;;;0.40;;
72547;SDS011;60570;50.848;6.776;2023-03-14T05:21:26;3.20;;;0.30;;
72547;SDS011;60570;50.848;6.776;2023-03-14T05:22:26;2.90;;;0.38;;
72547;SDS011;60570;50.848;6.776;2023-03-14T05:23:27;2.40;;;0.50;;
72547;SDS011;60570;50.848;6.776;2023-03-14T05:24:27;3.38;;;0.45;;
72547;SDS011;60570;50.848;6.776;2023-03-14T05:25:28;1.75;;;0.30;;
72547;SDS011;60570;50.848;6.776;2023-03-14T05:26:28;2.17;;;0.35;;
72547;SDS011;60570;50.848;6.776;2023-03-14T05:27:29;2.95;;;0.45;;
72547;SDS011;60570;50.848;6.776;2023-03-14T05:28:29;2.78;;;0.45;;
72547;SDS011;60570;50.848;6.776;2023-03-14T05:29:30;1.15;;;0.30;;
72547;SDS011;60570;50.848;6.776;2023-03-14T05:30:30;2.00;;;0.30;;
72547;SDS011;60570;50.848;6.776;2023-03-14T05:31:32;2.45;;;0.32;;
72547;SDS011;60570;50.848;6.776;2023-03-14T05:32:32;2.08;;;0.22;;
72547;SDS011;60570;50.848;6.776;2023-03-14T05:33:33;1.88;;;0.68;;
72547;SDS011;60570;50.848;6.776;2023-03-14T05:34:33;1.52;;;0.17;;
72547;SDS011;60570;50.848;6.776;2023-03-14T05:35:34;1.50;;;0.30;;
72547;SDS011;60570;50.848;6.776;2023-03-14T05:36:34;1.35;;;0.20;;
72547;SDS011;60570;50.848;6.776;2023-03-14T05:37:34;3.17;;;0.30;;
72547;SDS011;60570;50.848;6.776;2023-03-14T05:38:35;2.67;;;0.40;;
72547;SDS011;60570;50.848;6.776;2023-03-14T05:39:35;1.05;;;0.30;;
72547;SDS011;60570;50.848;6.776;2023-03-14T05:40:36;1.65;;;0.30;;
72547;SDS011;60570;50.848;6.776;2023-03-14T05:41:36;3.17;;;0.22;;
72547;SDS011;60570;50.848;6.776;2023-03-14T05:42:37;1.75;;;0.30;;
72547;SDS011;60570;50.848;6.776;2023-03-14T05:43:37;3.13;;;0.43;;
72547;SDS011;60570;50.848;6.776;2023-03-14T05:44:38;2.25;;;0.40;;
72547;SDS011;60570;50.848;6.776;2023-03-14T05:45:38;1.05;;;0.30;;
72547;SDS011;60570;50.848;6.776;2023-03-14T05:46:38;4.10;;;0.40;;
72547;SDS011;60570;50.848;6.776;2023-03-14T05:47:39;0.93;;;0.20;;
72547;SDS011;60570;50.848;6.776;2023-03-14T05:48:39;1.90;;;0.28;;
72547;SDS011;60570;50.848;6.776;2023-03-14T05:49:40;0.98;;;0.10;;
72547;SDS011;60570;50.848;6.776;2023-03-14T05:50:40;1.13;;;0.28;;
72547;SDS011;60570;50.848;6.776;2023-03-14T05:51:41;1.60;;;0.30;;
72547;SDS011;60570;50.848;6.776;2023-03-14T05:52:42;1.65;;;0.20;;
72547;SDS011;60570;50.848;6.776;2023-03-14T05:53:42;1.50;;;0.35;;
72547;SDS011;60570;50.848;6.776;2023-03-14T05:54:43;2.55;;;0.30;;
72547;SDS011;60570;50.848;6.776;2023-03-14T05:55:43;0.57;;;0.20;;
72547;SDS011;60570;50.848;6.776;2023-03-14T05:56:43;2.10;;;0.30;;
72547;SDS011;60570;50.848;6.776;2023-03-14T05:57:44;0.75;;;0.10;;
72547;SDS011;60570;50.848;6.776;2023-03-14T05:58:44;1.50;;;0.30;;
72547;SDS011;60570;50.848;6.776;2023-03-14T05:59:45;1.42;;;0.20;;
72547;SDS011;60570;50.848;6.776;2023-03-14T06:00:45;3.33;;;0.28;;
72547;SDS011;60570;50.848;6.776;2023-03-14T06:01:46;1.98;;;0.30;;
72547;SDS011;60570;50.848;6.776;2023-03-14T06:02:46;2.58;;;0.30;;
72547;SDS011;60570;50.848;6.776;2023-03-14T06:03:46;1.95;;;0.30;;
72547;SDS011;60570;50.848;6.776;2023-03-14T06:04:47;0.95;;;0.20;;
72547;SDS011;60570;50.848;6.776;2023-03-14T06:05:49;0.88;;;0.25;;
72547;SDS011;60570;50.848;6.776;2023-03-14T06:06:51;0.52;;;0.20;;
72547;SDS011;60570;50.848;6.776;2023-03-14T06:07:51;0.70;;;0.22;;
72547;SDS011;60570;50.848;6.776;2023-03-14T06:08:51;1.30;;;0.20;;
72547;SDS011;60570;50.848;6.776;2023-03-14T06:09:52;0.60;;;0.20;;
72547;SDS011;60570;50.848;6.776;2023-03-14T06:10:52;1.50;;;0.15;;
72547;SDS011;60570;50.848;6.776;2023-03-14T06:11:53;0.57;;;0.13;;
72547;SDS011;60570;50.848;6.776;2023-03-14T06:12:54;1.65;;;0.52;;
72547;SDS011;60570;50.848;6.776;2023-03-14T06:13:54;0.52;;;0.10;;
72547;SDS011;60570;50.848;6.776;2023-03-14T06:14:54;1.40;;;0.30;;
72547;SDS011;60570;50.848;6.776;2023-03-14T06:15:55;1.77;;;0.20;;
72547;SDS011;60570;50.848;6.776;2023-03-14T06:16:55;1.10;;;0.20;;
72547;SDS011;60570;50.848;6.776;2023-03-14T06:17:56;0.75;;;0.10;;